Kodiak, AK

10:20 AM AKDT on August 29, 2014 (GMT -0800)
Iliamna | Change Station
CLOSE
Current Station
Airport
Location: Iliamna,
Elevation: 161 ft
Nearby Weather Stations

Elev 161 ft 59.75 °N, 154.91 °W | Updated 27 minutes ago

Overcast
Overcast
53 °F
Feels Like 53 °F
N
6
Wind Variable Wind from West

Today
High -- | Low -- °F
--% Chance of Precip.
Yesterday
High -- | Low -- °F
Precip. -- in
7:04 AM 9:15 PM
Waxing Crescent, 15% visible
Pressure 29.69 in
Visibility 10.0 miles
Clouds Overcast 7000 ft
Dew Point 46 °F
Humidity 77%
Rainfall 0.00 in
Snow Depth Not available.
UV 0 out of 12
Pollen Not available.
Air Quality Not available.
Flu Activity Not available.
METAR PAIL 291753Z 27005KT 10SM OVC070 12/08 A2969 RMK AO2 SLP054 T01170078 10122 20100 56002

More Conditions Fewer Conditions

Pressure 29.69 in
Visibility 10.0 miles
Clouds Overcast 7000 ft
Dew Point 46 °F
Humidity 77%
Rainfall 0.00 in
Snow Depth Not available.
UV 0 out of 12
Pollen Not available.
Air Quality Not available.
Flu Activity Not available.
METAR PAIL 291753Z 27005KT 10SM OVC070 12/08 A2969 RMK AO2 SLP054 T01170078 10122 20100 56002

More Conditions Fewer Conditions

10-Day Weather Forecast

Almanac

Astronomy

Aug. 29, 2014 Rise Set
Actual Time 7:04 AM AKDT 9:15 PM AKDT
Civil Twilight 6:21 AM AKDT 9:57 PM AKDT
Nautical Twilight 5:27 AM AKDT 10:51 PM AKDT
Astronomical Twilight 4:19 AM AKDT 11:58 PM AKDT
Moon 12:02 PM AKDT 10:16 PM AKDT
Length of Visible Light 15h 35m
Length of Day
14h 11m
Tomorrow will be 4m 52s shorter.
Waxing Crescent, 15% of the Moon is Illuminated
Today
Waxing Crescent
Sep 2
First Quarter
Sep 8
Full
Sep 15
Last Quarter
Sep 24
New

Today's Extremes

State Highs State Lows

Community

WunderPhotos

Upload Photos

1,748,310 photos uploaded!

Nearby

Snow Depth

Station Depth Elevation
Port Graham 0 in 300 ft
Nuka Glacier 164 in 1250 ft
Mcneil Canyon 1 in 1320 ft
MF Bradley River 2 in 2300 ft
Cooper Lake 5 in 1200 ft

Earthquake Activity

City Distance Mag. Time & Date
No recent earthquake activity has been reported nearby.
Minimum magnitude displayed is 2.5.

Coastal Water Temperatures

Place Temperature
No Stations Reporting

Nearby Weather Stations